createdAt,value
2023-01-28T00:02:27.467Z,10.47
2023-01-28T00:04:55.346Z,9.53
2023-01-28T00:07:23.066Z,9.10
2023-01-28T00:09:50.949Z,9.73
2023-01-28T00:12:20.221Z,10.43
2023-01-28T00:14:48.745Z,9.23
2023-01-28T00:17:16.382Z,9.73
2023-01-28T00:19:44.857Z,8.60
2023-01-28T00:22:12.566Z,9.63
2023-01-28T00:24:40.224Z,8.60
2023-01-28T00:27:07.938Z,9.77
2023-01-28T00:29:36.980Z,8.77
2023-01-28T00:32:04.874Z,10.10
2023-01-28T00:34:32.895Z,9.90
2023-01-28T00:37:00.663Z,8.37
2023-01-28T00:39:28.583Z,9.00
2023-01-28T00:41:56.311Z,11.93
2023-01-28T00:44:23.985Z,11.33
2023-01-28T00:46:52.995Z,10.47
2023-01-28T00:49:20.673Z,9.47
2023-01-28T00:51:49.189Z,12.60
2023-01-28T00:54:17.110Z,8.70
2023-01-28T00:56:44.788Z,10.60
2023-01-28T00:59:12.469Z,10.03
2023-01-28T01:01:40.291Z,9.10
2023-01-28T01:04:09.419Z,9.47
2023-01-28T01:06:38.864Z,11.57
2023-01-28T01:09:08.798Z,11.87
2023-01-28T01:11:36.658Z,11.10
2023-01-28T01:14:05.249Z,9.83
2023-01-28T01:16:33.326Z,10.63
2023-01-28T01:19:01.304Z,13.23
2023-01-28T01:21:31.415Z,10.67
2023-01-28T01:23:59.301Z,12.20
2023-01-28T01:26:27.899Z,10.13
2023-01-28T01:28:55.619Z,10.80
2023-01-28T01:31:23.583Z,10.67
2023-01-28T01:33:52.541Z,10.00
2023-01-28T01:36:22.120Z,11.87
2023-01-28T01:38:54.477Z,11.73
2023-01-28T01:41:27.312Z,10.87
2023-01-28T01:43:57.001Z,11.07
2023-01-28T01:46:28.531Z,13.43
2023-01-28T01:48:57.242Z,11.37
2023-01-28T01:51:27.590Z,16.00
2023-01-28T01:53:57.728Z,10.77
2023-01-28T01:56:29.483Z,11.63
2023-01-28T01:58:57.635Z,12.40
2023-01-28T02:01:29.013Z,14.33
2023-01-28T02:04:02.281Z,16.63
2023-01-28T02:06:30.098Z,17.73
2023-01-28T02:08:59.452Z,10.97
2023-01-28T02:11:29.868Z,11.10
2023-01-28T02:13:59.584Z,12.50
2023-01-28T02:16:27.932Z,13.43
2023-01-28T02:18:55.822Z,11.23
2023-01-28T02:21:36.736Z,13.53
2023-01-28T02:24:20.599Z,14.40
2023-01-28T02:26:58.567Z,14.93
2023-01-28T02:29:28.980Z,13.00
2023-01-28T02:32:00.272Z,12.80
2023-01-28T02:34:35.596Z,11.77
2023-01-28T02:37:08.223Z,13.07
2023-01-28T02:39:39.581Z,13.10
2023-01-28T02:42:09.082Z,17.63
2023-01-28T02:44:38.161Z,11.90
2023-01-28T02:47:27.223Z,12.73
2023-01-28T02:49:57.276Z,13.93
2023-01-28T02:52:51.180Z,14.53
2023-01-28T02:55:24.416Z,18.67
2023-01-28T02:57:59.612Z,14.33
2023-01-28T03:00:31.829Z,13.77
2023-01-28T03:03:03.425Z,13.30
2023-01-28T03:05:35.517Z,13.43
2023-01-28T03:08:25.677Z,16.93
2023-01-28T03:11:12.014Z,15.80
2023-01-28T03:13:57.455Z,14.93
2023-01-28T03:16:43.981Z,16.50
2023-01-28T03:19:30.202Z,14.07
2023-01-28T03:22:15.442Z,15.97
2023-01-28T03:25:04.519Z,17.20
2023-01-28T03:27:53.371Z,16.37
2023-01-28T03:30:41.689Z,14.03
2023-01-28T03:33:28.332Z,12.83
2023-01-28T03:36:13.875Z,13.27
2023-01-28T03:38:43.038Z,11.80
2023-01-28T03:41:12.375Z,13.13
2023-01-28T03:43:40.179Z,12.53
2023-01-28T03:46:07.899Z,13.53
2023-01-28T03:48:36.991Z,12.57
2023-01-28T03:51:05.101Z,11.97
2023-01-28T03:53:32.794Z,11.43
2023-01-28T03:56:00.463Z,12.80
2023-01-28T03:58:46.635Z,11.27
2023-01-28T04:01:14.591Z,11.53
2023-01-28T04:03:43.614Z,14.27
2023-01-28T04:06:11.429Z,14.27
2023-01-28T04:08:39.075Z,11.60
2023-01-28T04:11:16.543Z,12.80
2023-01-28T04:13:44.840Z,11.57
2023-01-28T04:16:12.911Z,13.10
2023-01-28T04:18:40.690Z,10.77
2023-01-28T04:21:09.948Z,11.73
2023-01-28T04:23:37.720Z,11.97
2023-01-28T04:26:05.758Z,13.80
2023-01-28T04:28:33.529Z,14.80
2023-01-28T04:31:01.367Z,15.83
2023-01-28T04:33:29.390Z,11.40
2023-01-28T04:35:57.123Z,13.40
2023-01-28T04:38:26.191Z,12.63
2023-01-28T04:40:54.624Z,11.53
2023-01-28T04:43:22.305Z,13.23
2023-01-28T04:45:50.371Z,12.10
2023-01-28T04:48:18.438Z,12.83
2023-01-28T04:50:46.665Z,12.30
2023-01-28T04:53:14.479Z,12.77
2023-01-28T04:55:43.515Z,12.77
2023-01-28T04:58:11.169Z,14.20
2023-01-28T05:00:38.840Z,14.07
2023-01-28T05:03:06.538Z,12.63
2023-01-28T05:05:34.175Z,11.63
2023-01-28T05:08:02.169Z,11.57
2023-01-28T05:10:29.857Z,11.23
2023-01-28T05:12:58.927Z,13.13
2023-01-28T05:15:26.619Z,11.60
2023-01-28T05:17:56.059Z,11.27
2023-01-28T05:20:23.881Z,11.27
2023-01-28T05:22:51.499Z,11.13
2023-01-28T05:25:19.374Z,11.10
2023-01-28T05:27:50.900Z,11.17
2023-01-28T05:30:20.387Z,11.63
2023-01-28T05:32:48.213Z,11.47
2023-01-28T05:35:16.408Z,10.17
2023-01-28T05:37:44.405Z,11.20
2023-01-28T05:40:13.522Z,11.17
2023-01-28T05:42:41.320Z,10.50
2023-01-28T05:45:10.502Z,11.27
2023-01-28T05:47:39.705Z,11.40
2023-01-28T05:50:08.380Z,10.83
2023-01-28T05:52:36.099Z,15.10
2023-01-28T05:55:04.188Z,12.23
2023-01-28T05:57:31.858Z,10.37
2023-01-28T05:59:59.501Z,10.67
2023-01-28T06:02:27.257Z,10.47
2023-01-28T06:04:56.479Z,12.27
2023-01-28T06:07:24.327Z,11.30
2023-01-28T06:09:52.022Z,14.67
2023-01-28T06:12:19.771Z,11.33
2023-01-28T06:14:47.463Z,12.53
2023-01-28T06:17:15.189Z,11.97
2023-01-28T06:19:43.914Z,11.77
2023-01-28T06:22:12.962Z,13.27
2023-01-28T06:24:40.619Z,13.03
2023-01-28T06:27:08.340Z,15.37
2023-01-28T06:29:36.072Z,13.23
2023-01-28T06:32:03.745Z,13.97
2023-01-28T06:34:31.502Z,13.43
2023-01-28T06:36:59.168Z,13.17
2023-01-28T06:39:31.820Z,15.23
2023-01-28T06:41:59.666Z,13.43
2023-01-28T06:44:27.530Z,13.70
2023-01-28T06:46:55.224Z,15.23
2023-01-28T06:49:23.292Z,13.90
2023-01-28T06:51:51.115Z,17.17
2023-01-28T06:54:18.930Z,11.87
2023-01-28T06:56:47.982Z,10.83
2023-01-28T06:59:15.653Z,11.13
2023-01-28T07:01:43.336Z,12.47
2023-01-28T07:04:11.294Z,11.97
2023-01-28T07:06:39.057Z,12.93
2023-01-28T07:09:07.062Z,13.50
2023-01-28T07:11:34.808Z,11.33
2023-01-28T07:14:04.836Z,13.10
2023-01-28T07:16:32.498Z,12.23
2023-01-28T07:19:00.193Z,14.83
2023-01-28T07:21:27.895Z,12.40
2023-01-28T07:23:56.201Z,11.97
2023-01-28T07:26:23.856Z,12.50
2023-01-28T07:28:51.496Z,12.57
2023-01-28T07:31:20.652Z,12.70
2023-01-28T07:33:48.369Z,12.80
2023-01-28T07:36:16.026Z,13.70
2023-01-28T07:38:44.091Z,18.77
2023-01-28T07:41:11.773Z,13.90
2023-01-28T07:43:39.432Z,17.27
2023-01-28T07:46:07.143Z,13.20
2023-01-28T07:48:36.733Z,12.60
2023-01-28T07:51:04.553Z,11.73
2023-01-28T07:53:32.286Z,11.37
2023-01-28T07:56:00.698Z,14.20
2023-01-28T07:58:28.394Z,11.90
2023-01-28T08:00:58.131Z,15.00
2023-01-28T08:03:26.124Z,10.70
2023-01-28T08:05:57.339Z,11.23
2023-01-28T08:08:25.592Z,12.43
2023-01-28T08:10:53.553Z,13.97
2023-01-28T08:13:21.409Z,12.23
2023-01-28T08:15:49.195Z,12.67
2023-01-28T08:18:17.792Z,11.17
2023-01-28T08:20:47.345Z,12.33
2023-01-28T08:23:18.261Z,10.80
2023-01-28T08:25:46.193Z,11.67
2023-01-28T08:28:15.089Z,12.10
2023-01-28T08:30:43.256Z,13.37
2023-01-28T08:33:12.878Z,10.67
2023-01-28T08:35:40.999Z,14.73
2023-01-28T08:38:09.686Z,10.83
2023-01-28T08:40:38.834Z,11.10
2023-01-28T08:43:06.734Z,10.63
2023-01-28T08:45:34.529Z,12.50
2023-01-28T08:48:03.631Z,12.07
2023-01-28T08:50:33.862Z,11.90
2023-01-28T08:53:02.785Z,12.63
2023-01-28T08:55:30.981Z,13.20
2023-01-28T08:58:03.146Z,19.33
2023-01-28T09:00:30.882Z,12.83
2023-01-28T09:02:58.532Z,14.63
2023-01-28T09:05:26.225Z,13.87
2023-01-28T09:07:53.942Z,14.67
2023-01-28T09:10:22.014Z,13.13
2023-01-28T09:12:49.857Z,14.23
2023-01-28T09:15:19.084Z,16.80
2023-01-28T09:17:46.752Z,17.57
2023-01-28T09:20:14.814Z,12.53
2023-01-28T09:22:42.785Z,15.10
2023-01-28T09:25:10.728Z,14.53
2023-01-28T09:27:38.370Z,13.37
2023-01-28T09:30:07.059Z,15.53
2023-01-28T09:32:36.165Z,13.60
2023-01-28T09:35:03.820Z,13.27
2023-01-28T09:37:31.527Z,15.00
2023-01-28T09:39:59.232Z,15.00
2023-01-28T09:42:39.415Z,15.63
2023-01-28T09:45:16.044Z,14.80
2023-01-28T09:47:47.718Z,14.83
2023-01-28T09:50:18.971Z,16.73
2023-01-28T09:52:47.059Z,18.00
2023-01-28T09:55:20.428Z,16.57
2023-01-28T09:57:53.229Z,15.80
2023-01-28T10:00:23.838Z,17.70
2023-01-28T10:03:02.145Z,19.00
2023-01-28T10:05:39.220Z,16.47
2023-01-28T10:08:17.827Z,17.13
2023-01-28T10:10:48.523Z,18.37
2023-01-28T10:13:27.695Z,15.27
2023-01-28T10:16:09.662Z,16.23
2023-01-28T10:18:43.359Z,15.50
2023-01-28T10:21:15.408Z,15.80
2023-01-28T10:23:49.857Z,16.07
2023-01-28T10:26:23.981Z,16.37
2023-01-28T10:28:57.944Z,14.53
2023-01-28T10:31:32.253Z,21.37
2023-01-28T10:34:02.034Z,16.43
2023-01-28T10:36:30.384Z,14.23
2023-01-28T10:38:58.153Z,14.60
2023-01-28T10:41:26.774Z,14.63
2023-01-28T10:43:58.247Z,13.93
2023-01-28T10:46:30.612Z,14.87
2023-01-28T10:49:03.616Z,14.17
2023-01-28T10:51:32.852Z,13.87
2023-01-28T10:54:00.523Z,15.40
2023-01-28T10:56:30.235Z,13.43
2023-01-28T10:59:01.453Z,17.70
2023-01-28T11:01:45.492Z,19.40
2023-01-28T11:04:20.581Z,14.23
2023-01-28T11:07:00.294Z,14.23
2023-01-28T11:09:30.864Z,15.33
2023-01-28T11:11:58.853Z,13.30
2023-01-28T11:14:28.603Z,14.47
2023-01-28T11:16:57.829Z,15.17
2023-01-28T11:19:33.096Z,16.47
2023-01-28T11:22:00.834Z,18.57
2023-01-28T11:24:30.902Z,18.67
2023-01-28T11:27:01.700Z,16.57
2023-01-28T11:29:32.094Z,26.30
2023-01-28T11:32:00.969Z,18.67
2023-01-28T11:34:32.136Z,16.17
2023-01-28T11:37:04.429Z,14.97
2023-01-28T11:39:32.482Z,14.10
2023-01-28T11:42:14.409Z,15.17
2023-01-28T11:44:42.666Z,13.27
2023-01-28T11:47:20.453Z,14.43
2023-01-28T11:50:02.554Z,15.03
2023-01-28T11:53:02.672Z,17.40
2023-01-28T11:55:41.975Z,13.40
2023-01-28T11:58:21.921Z,19.27
2023-01-28T12:00:54.832Z,15.77
2023-01-28T12:03:32.253Z,13.57
2023-01-28T12:06:28.786Z,14.13
2023-01-28T12:09:02.658Z,13.27
2023-01-28T12:11:54.420Z,19.23
2023-01-28T12:14:28.637Z,16.07
2023-01-28T12:17:09.759Z,15.30
2023-01-28T12:19:48.922Z,13.80
2023-01-28T12:22:49.870Z,12.83
2023-01-28T12:25:28.126Z,15.53
2023-01-28T12:28:03.986Z,14.33
2023-01-28T12:30:46.887Z,13.83
2023-01-28T12:33:32.996Z,15.70
2023-01-28T12:36:07.148Z,15.03
2023-01-28T12:38:43.963Z,12.90
2023-01-28T12:41:14.704Z,14.27
2023-01-28T12:43:48.136Z,15.07
2023-01-28T12:46:23.828Z,13.30
2023-01-28T12:48:55.411Z,12.00
2023-01-28T12:51:26.101Z,11.63
2023-01-28T12:53:58.792Z,12.10
2023-01-28T12:56:29.972Z,14.13
2023-01-28T12:59:01.924Z,12.27
2023-01-28T13:01:31.547Z,13.03
2023-01-28T13:04:02.935Z,12.90
2023-01-28T13:06:34.594Z,14.53
2023-01-28T13:09:13.286Z,14.97
2023-01-28T13:11:41.193Z,13.00
2023-01-28T13:14:09.990Z,13.47
2023-01-28T13:16:38.248Z,11.20
2023-01-28T13:19:08.454Z,14.87
2023-01-28T13:21:48.726Z,14.03
2023-01-28T13:24:33.139Z,13.70
2023-01-28T13:27:13.469Z,11.27
2023-01-28T13:29:41.200Z,13.93
2023-01-28T13:32:29.340Z,12.47
2023-01-28T13:35:02.786Z,14.53
2023-01-28T13:37:34.156Z,11.83
2023-01-28T13:40:09.263Z,11.20
2023-01-28T13:42:37.475Z,11.77
2023-01-28T13:45:23.334Z,12.73
2023-01-28T13:47:54.041Z,12.73
2023-01-28T13:50:23.207Z,14.67
2023-01-28T13:52:54.994Z,14.07
2023-01-28T13:55:42.862Z,13.47
2023-01-28T13:58:35.169Z,10.20
2023-01-28T14:01:31.384Z,11.70
2023-01-28T14:04:22.403Z,11.80
2023-01-28T14:07:05.673Z,10.40
2023-01-28T14:09:47.067Z,9.80
2023-01-28T14:12:37.523Z,12.53
2023-01-28T14:15:13.866Z,11.37
2023-01-28T14:17:45.233Z,12.90
2023-01-28T14:20:19.454Z,12.03
2023-01-28T14:22:47.624Z,10.27
2023-01-28T14:25:18.307Z,10.10
2023-01-28T14:27:51.107Z,12.43
2023-01-28T14:30:24.203Z,12.43
2023-01-28T14:32:53.860Z,9.67
2023-01-28T14:35:26.316Z,10.80
2023-01-28T14:37:53.977Z,11.93
2023-01-28T14:40:22.534Z,13.10
2023-01-28T14:42:54.523Z,12.33
2023-01-28T14:45:32.800Z,9.37
2023-01-28T14:48:15.815Z,9.67
2023-01-28T14:50:52.902Z,9.93
2023-01-28T14:53:30.041Z,10.90
2023-01-28T14:56:00.940Z,16.23
2023-01-28T14:58:33.168Z,11.60
2023-01-28T15:01:02.015Z,12.93
2023-01-28T15:03:36.631Z,13.10
2023-01-28T15:06:06.745Z,13.80
2023-01-28T15:08:35.844Z,10.53
2023-01-28T15:11:03.882Z,13.47
2023-01-28T15:13:35.664Z,11.83
2023-01-28T15:16:03.514Z,10.93
2023-01-28T15:18:34.942Z,12.40
2023-01-28T15:21:03.416Z,11.00
2023-01-28T15:23:34.307Z,11.67
2023-01-28T15:26:06.013Z,12.27
2023-01-28T15:28:37.950Z,12.40
2023-01-28T15:31:05.962Z,10.03
2023-01-28T15:33:33.733Z,12.20
2023-01-28T15:36:01.550Z,13.47
2023-01-28T15:38:30.221Z,12.43
2023-01-28T15:40:59.879Z,13.90
2023-01-28T15:43:30.490Z,12.73
2023-01-28T15:46:00.219Z,12.27
2023-01-28T15:48:29.464Z,13.50
2023-01-28T15:51:01.792Z,10.50
2023-01-28T15:53:32.918Z,12.47
2023-01-28T15:56:08.956Z,17.40
2023-01-28T15:58:41.269Z,15.67
2023-01-28T16:01:16.988Z,15.47
2023-01-28T16:03:46.579Z,14.23
2023-01-28T16:06:17.655Z,16.97
2023-01-28T16:08:53.440Z,16.20
2023-01-28T16:11:26.266Z,16.73
2023-01-28T16:13:54.360Z,12.47
2023-01-28T16:16:31.951Z,20.33
2023-01-28T16:18:59.934Z,16.03
2023-01-28T16:21:29.384Z,15.00
2023-01-28T16:24:01.823Z,15.60
2023-01-28T16:26:30.391Z,15.37
2023-01-28T16:28:59.164Z,18.57
2023-01-28T16:31:27.096Z,16.47
2023-01-28T16:33:56.158Z,19.70
2023-01-28T16:36:23.774Z,20.23
2023-01-28T16:38:51.469Z,20.70
2023-01-28T16:41:25.314Z,25.10
2023-01-28T16:43:53.020Z,23.53
2023-01-28T16:46:20.813Z,21.63
2023-01-28T16:48:48.527Z,22.60
2023-01-28T16:51:18.983Z,18.10
2023-01-28T16:53:47.466Z,18.10
2023-01-28T16:56:35.814Z,20.10
2023-01-28T16:59:03.917Z,19.80
2023-01-28T17:01:31.604Z,22.00
2023-01-28T17:03:59.276Z,20.33
2023-01-28T17:06:28.289Z,24.80
2023-01-28T17:08:56.012Z,18.73
2023-01-28T17:11:23.719Z,22.93
2023-01-28T17:13:51.403Z,23.57
2023-01-28T17:16:19.113Z,22.87
2023-01-28T17:18:51.067Z,25.27
2023-01-28T17:21:18.782Z,23.63
2023-01-28T17:23:47.993Z,22.90
2023-01-28T17:26:16.648Z,24.30
2023-01-28T17:28:44.828Z,23.33
2023-01-28T17:31:14.171Z,22.27
2023-01-28T17:33:42.443Z,20.37
2023-01-28T17:36:11.186Z,21.13
2023-01-28T17:38:38.906Z,21.83
2023-01-28T17:41:09.521Z,21.27
2023-01-28T17:43:37.213Z,25.20
2023-01-28T17:46:12.176Z,20.17
2023-01-28T17:48:40.042Z,22.87
2023-01-28T17:51:08.012Z,26.37
2023-01-28T17:53:35.720Z,19.27
2023-01-28T17:56:03.434Z,20.47
2023-01-28T17:58:32.644Z,23.00
2023-01-28T18:01:00.352Z,20.83
2023-01-28T18:03:28.078Z,20.67
2023-01-28T18:05:59.796Z,21.53
2023-01-28T18:08:27.938Z,22.17
2023-01-28T18:10:56.209Z,21.77
2023-01-28T18:13:23.924Z,20.33
2023-01-28T18:15:52.986Z,23.30
2023-01-28T18:18:20.641Z,22.30
2023-01-28T18:20:58.018Z,22.00
2023-01-28T18:23:25.809Z,22.23
2023-01-28T18:25:56.928Z,20.50
2023-01-28T18:28:24.899Z,23.03
2023-01-28T18:30:54.306Z,22.60
2023-01-28T18:33:23.414Z,23.37
2023-01-28T18:35:51.079Z,23.27
2023-01-28T18:38:19.272Z,22.13
2023-01-28T18:40:47.248Z,19.77
2023-01-28T18:43:15.540Z,22.30
2023-01-28T18:45:45.646Z,20.97
2023-01-28T18:48:14.772Z,21.77
2023-01-28T18:50:42.467Z,21.70
2023-01-28T18:53:10.185Z,21.73
2023-01-28T18:55:37.864Z,22.23
2023-01-28T18:58:05.543Z,23.43
2023-01-28T19:00:33.375Z,23.37
2023-01-28T19:03:02.518Z,22.40
2023-01-28T19:05:36.031Z,23.03
2023-01-28T19:08:03.923Z,21.70
2023-01-28T19:10:31.744Z,23.87
2023-01-28T19:12:59.622Z,21.57
2023-01-28T19:15:27.522Z,20.70
2023-01-28T19:17:55.232Z,23.80
2023-01-28T19:20:22.960Z,23.90
2023-01-28T19:22:52.018Z,21.10
2023-01-28T19:25:20.027Z,22.53
2023-01-28T19:27:47.666Z,21.83
2023-01-28T19:30:15.524Z,22.27
2023-01-28T19:32:43.216Z,23.67
2023-01-28T19:35:10.853Z,25.57
2023-01-28T19:37:38.611Z,22.63
2023-01-28T19:40:09.316Z,25.17
2023-01-28T19:42:36.967Z,22.13
2023-01-28T19:45:05.942Z,21.37
2023-01-28T19:47:34.351Z,24.07
2023-01-28T19:50:02.090Z,24.00
2023-01-28T19:52:29.726Z,22.63
2023-01-28T19:54:57.361Z,22.03
2023-01-28T19:57:26.382Z,23.90
2023-01-28T19:59:54.100Z,22.57
2023-01-28T20:02:21.864Z,23.00
2023-01-28T20:05:00.326Z,22.23
2023-01-28T20:07:28.545Z,21.93
2023-01-28T20:09:56.585Z,26.43
2023-01-28T20:12:24.233Z,24.47
2023-01-28T20:14:53.304Z,24.07
2023-01-28T20:17:21.695Z,23.70
2023-01-28T20:19:49.858Z,23.87
2023-01-28T20:22:17.581Z,23.63
2023-01-28T20:24:45.261Z,22.70
2023-01-28T20:27:12.976Z,22.57
2023-01-28T20:29:40.657Z,20.80
2023-01-28T20:32:18.352Z,26.90
2023-01-28T20:34:47.712Z,24.27
2023-01-28T20:37:15.357Z,23.97
2023-01-28T20:39:43.644Z,25.00
2023-01-28T20:42:13.341Z,24.37
2023-01-28T20:44:41.037Z,25.60
2023-01-28T20:47:10.144Z,24.23
2023-01-28T20:49:37.991Z,28.53
2023-01-28T20:52:05.936Z,25.27
2023-01-28T20:54:33.603Z,25.87
2023-01-28T20:57:01.323Z,24.47
2023-01-28T20:59:29.242Z,30.00
2023-01-28T21:01:56.951Z,29.37
2023-01-28T21:04:26.016Z,26.27
2023-01-28T21:06:53.703Z,24.63
2023-01-28T21:09:22.651Z,26.03
2023-01-28T21:11:50.375Z,24.67
2023-01-28T21:14:18.388Z,26.37
2023-01-28T21:16:47.222Z,26.00
2023-01-28T21:19:14.939Z,29.00
2023-01-28T21:21:45.146Z,23.17
2023-01-28T21:24:12.911Z,27.13
2023-01-28T21:26:40.607Z,28.20
2023-01-28T21:29:08.403Z,28.10
2023-01-28T21:31:36.611Z,26.60
2023-01-28T21:34:04.351Z,26.87
2023-01-28T21:36:34.322Z,27.60
2023-01-28T21:39:03.584Z,28.83
2023-01-28T21:41:31.787Z,27.30
2023-01-28T21:43:59.938Z,30.23
2023-01-28T21:46:29.783Z,28.30
2023-01-28T21:48:58.594Z,27.90
2023-01-28T21:51:40.324Z,29.70
2023-01-28T21:54:14.179Z,29.57
2023-01-28T21:56:43.438Z,28.10
2023-01-28T21:59:30.279Z,28.60
2023-01-28T22:01:58.866Z,26.87
2023-01-28T22:04:27.737Z,28.90
2023-01-28T22:06:56.113Z,30.37
2023-01-28T22:09:25.422Z,31.63
2023-01-28T22:11:53.624Z,29.87
2023-01-28T22:14:21.513Z,27.50
2023-01-28T22:16:49.348Z,29.50
2023-01-28T22:19:17.293Z,27.93
2023-01-28T22:21:46.793Z,28.67
2023-01-28T22:24:16.520Z,32.17
2023-01-28T22:26:46.852Z,29.00
2023-01-28T22:29:16.391Z,30.63
2023-01-28T22:31:46.167Z,27.90
2023-01-28T22:34:13.972Z,31.97
2023-01-28T22:36:41.769Z,30.47
2023-01-28T22:39:13.611Z,28.97
2023-01-28T22:41:41.475Z,30.23
2023-01-28T22:44:10.693Z,29.83
2023-01-28T22:46:38.683Z,30.03
2023-01-28T22:49:06.627Z,33.37
2023-01-28T22:51:37.417Z,31.77
2023-01-28T22:54:05.386Z,31.73
2023-01-28T22:56:33.147Z,31.43
2023-01-28T22:59:02.948Z,29.00
2023-01-28T23:01:32.256Z,31.23
2023-01-28T23:04:00.233Z,31.37
2023-01-28T23:06:29.942Z,32.83
2023-01-28T23:08:57.661Z,28.13
2023-01-28T23:11:28.836Z,32.50
2023-01-28T23:14:15.223Z,35.20
2023-01-28T23:17:01.802Z,30.73
2023-01-28T23:19:47.583Z,32.10
2023-01-28T23:22:34.832Z,31.47
2023-01-28T23:25:02.566Z,31.30
2023-01-28T23:27:30.283Z,29.63
2023-01-28T23:29:57.994Z,29.97
2023-01-28T23:32:27.459Z,31.83
2023-01-28T23:34:55.151Z,33.30
2023-01-28T23:37:23.161Z,28.70
2023-01-28T23:39:50.901Z,31.80
2023-01-28T23:42:20.658Z,35.00
2023-01-28T23:44:48.501Z,34.10
2023-01-28T23:47:16.464Z,31.07
2023-01-28T23:49:45.836Z,36.20
2023-01-28T23:52:13.498Z,31.80
2023-01-28T23:54:41.346Z,31.67
2023-01-28T23:57:09.372Z,33.90
2023-01-28T23:59:37.896Z,33.53
